sensor_id;sensor_type;location;lat;lon;timestamp;temperature;humidity
13472;DHT22;6808;49.444;11.034;2023-12-07T00:00:48;1.70;99.90
13472;DHT22;6808;49.444;11.034;2023-12-07T00:03:13;1.70;99.90
13472;DHT22;6808;49.444;11.034;2023-12-07T00:05:40;1.70;99.90
13472;DHT22;6808;49.444;11.034;2023-12-07T00:08:09;1.70;99.90
13472;DHT22;6808;49.444;11.034;2023-12-07T00:10:36;1.70;99.90
13472;DHT22;6808;49.444;11.034;2023-12-07T00:13:01;1.70;99.90
13472;DHT22;6808;49.444;11.034;2023-12-07T00:15:27;1.70;99.90
13472;DHT22;6808;49.444;11.034;2023-12-07T00:17:52;1.70;99.90
13472;DHT22;6808;49.444;11.034;2023-12-07T00:20:18;1.70;99.90
13472;DHT22;6808;49.444;11.034;2023-12-07T00:22:43;1.70;99.90
13472;DHT22;6808;49.444;11.034;2023-12-07T00:25:09;1.70;99.90
13472;DHT22;6808;49.444;11.034;2023-12-07T00:27:34;1.70;99.90
13472;DHT22;6808;49.444;11.034;2023-12-07T00:30:00;1.70;99.90
13472;DHT22;6808;49.444;11.034;2023-12-07T00:32:25;1.70;99.90
13472;DHT22;6808;49.444;11.034;2023-12-07T00:34:52;1.70;99.90
13472;DHT22;6808;49.444;11.034;2023-12-07T00:37:18;1.70;99.90
13472;DHT22;6808;49.444;11.034;2023-12-07T00:39:43;1.70;99.90
13472;DHT22;6808;49.444;11.034;2023-12-07T00:42:09;1.70;99.90
13472;DHT22;6808;49.444;11.034;2023-12-07T00:44:39;1.70;99.90
13472;DHT22;6808;49.444;11.034;2023-12-07T00:47:05;1.70;99.90
13472;DHT22;6808;49.444;11.034;2023-12-07T00:49:30;1.70;99.90
13472;DHT22;6808;49.444;11.034;2023-12-07T00:51:56;1.70;99.90
13472;DHT22;6808;49.444;11.034;2023-12-07T00:54:22;1.60;99.90
13472;DHT22;6808;49.444;11.034;2023-12-07T00:56:48;1.70;99.90
13472;DHT22;6808;49.444;11.034;2023-12-07T00:59:13;1.70;99.90
13472;DHT22;6808;49.444;11.034;2023-12-07T01:01:39;1.70;99.90
13472;DHT22;6808;49.444;11.034;2023-12-07T01:04:05;1.70;99.90
13472;DHT22;6808;49.444;11.034;2023-12-07T01:06:31;1.70;99.90
13472;DHT22;6808;49.444;11.034;2023-12-07T01:08:57;1.70;99.90
13472;DHT22;6808;49.444;11.034;2023-12-07T01:11:22;1.70;99.90
13472;DHT22;6808;49.444;11.034;2023-12-07T01:13:48;1.70;99.90
13472;DHT22;6808;49.444;11.034;2023-12-07T01:16:14;1.70;99.90
13472;DHT22;6808;49.444;11.034;2023-12-07T01:18:40;1.70;99.90
13472;DHT22;6808;49.444;11.034;2023-12-07T01:21:05;1.60;99.90
13472;DHT22;6808;49.444;11.034;2023-12-07T01:23:31;1.70;99.90
13472;DHT22;6808;49.444;11.034;2023-12-07T01:25:57;1.70;99.90
13472;DHT22;6808;49.444;11.034;2023-12-07T01:28:23;1.70;99.90
13472;DHT22;6808;49.444;11.034;2023-12-07T01:30:48;1.70;99.90
13472;DHT22;6808;49.444;11.034;2023-12-07T01:33:14;1.70;99.90
13472;DHT22;6808;49.444;11.034;2023-12-07T01:35:40;1.70;99.90
13472;DHT22;6808;49.444;11.034;2023-12-07T01:38:06;1.70;99.90
13472;DHT22;6808;49.444;11.034;2023-12-07T01:40:32;1.70;99.90
13472;DHT22;6808;49.444;11.034;2023-12-07T01:42:57;1.70;99.90
13472;DHT22;6808;49.444;11.034;2023-12-07T01:45:23;1.70;99.90
13472;DHT22;6808;49.444;11.034;2023-12-07T01:47:50;1.70;99.90
13472;DHT22;6808;49.444;11.034;2023-12-07T01:50:16;1.70;99.90
13472;DHT22;6808;49.444;11.034;2023-12-07T01:52:45;1.70;99.90
13472;DHT22;6808;49.444;11.034;2023-12-07T01:55:13;1.70;99.90
13472;DHT22;6808;49.444;11.034;2023-12-07T01:57:40;1.70;99.90
13472;DHT22;6808;49.444;11.034;2023-12-07T02:00:07;1.70;99.90
13472;DHT22;6808;49.444;11.034;2023-12-07T02:02:34;1.70;99.90
13472;DHT22;6808;49.444;11.034;2023-12-07T02:05:01;1.70;99.90
13472;DHT22;6808;49.444;11.034;2023-12-07T02:07:27;1.70;99.90
13472;DHT22;6808;49.444;11.034;2023-12-07T02:09:53;1.70;99.90
13472;DHT22;6808;49.444;11.034;2023-12-07T02:12:19;1.70;99.90
13472;DHT22;6808;49.444;11.034;2023-12-07T02:14:45;1.70;99.90
13472;DHT22;6808;49.444;11.034;2023-12-07T02:17:34;1.70;99.90
13472;DHT22;6808;49.444;11.034;2023-12-07T02:20:11;1.70;99.90
13472;DHT22;6808;49.444;11.034;2023-12-07T02:22:54;1.70;99.90
13472;DHT22;6808;49.444;11.034;2023-12-07T02:25:29;1.70;99.90
13472;DHT22;6808;49.444;11.034;2023-12-07T02:27:54;1.60;99.90
13472;DHT22;6808;49.444;11.034;2023-12-07T02:30:20;1.70;99.90
13472;DHT22;6808;49.444;11.034;2023-12-07T02:32:46;1.70;99.90
13472;DHT22;6808;49.444;11.034;2023-12-07T02:35:12;1.70;99.90
13472;DHT22;6808;49.444;11.034;2023-12-07T02:37:49;1.70;99.90
13472;DHT22;6808;49.444;11.034;2023-12-07T02:40:18;1.70;99.90
13472;DHT22;6808;49.444;11.034;2023-12-07T02:42:44;1.70;99.90
13472;DHT22;6808;49.444;11.034;2023-12-07T02:45:11;1.70;99.90
13472;DHT22;6808;49.444;11.034;2023-12-07T02:47:38;1.70;99.90
13472;DHT22;6808;49.444;11.034;2023-12-07T02:50:05;1.70;99.90
13472;DHT22;6808;49.444;11.034;2023-12-07T02:52:32;1.70;99.90
13472;DHT22;6808;49.444;11.034;2023-12-07T02:54:57;1.70;99.90
13472;DHT22;6808;49.444;11.034;2023-12-07T02:57:23;1.70;99.90
13472;DHT22;6808;49.444;11.034;2023-12-07T02:59:48;1.70;99.90
13472;DHT22;6808;49.444;11.034;2023-12-07T03:02:14;1.70;99.90
13472;DHT22;6808;49.444;11.034;2023-12-07T03:04:39;1.70;99.90
13472;DHT22;6808;49.444;11.034;2023-12-07T03:07:05;1.70;99.90
13472;DHT22;6808;49.444;11.034;2023-12-07T03:09:30;1.70;99.90
13472;DHT22;6808;49.444;11.034;2023-12-07T03:11:56;1.70;99.90
13472;DHT22;6808;49.444;11.034;2023-12-07T03:14:25;1.70;99.90
13472;DHT22;6808;49.444;11.034;2023-12-07T03:16:50;1.70;99.90
13472;DHT22;6808;49.444;11.034;2023-12-07T03:19:16;1.70;99.90
13472;DHT22;6808;49.444;11.034;2023-12-07T03:21:42;1.70;99.90
13472;DHT22;6808;49.444;11.034;2023-12-07T03:24:10;1.70;99.90
13472;DHT22;6808;49.444;11.034;2023-12-07T03:26:37;1.70;99.90
13472;DHT22;6808;49.444;11.034;2023-12-07T03:29:02;1.60;99.90
13472;DHT22;6808;49.444;11.034;2023-12-07T03:31:28;1.70;99.90
13472;DHT22;6808;49.444;11.034;2023-12-07T03:33:55;1.70;99.90
13472;DHT22;6808;49.444;11.034;2023-12-07T03:36:21;1.60;99.90
13472;DHT22;6808;49.444;11.034;2023-12-07T03:38:47;1.60;99.90
13472;DHT22;6808;49.444;11.034;2023-12-07T03:41:13;1.60;99.90
13472;DHT22;6808;49.444;11.034;2023-12-07T03:43:38;1.60;99.90
13472;DHT22;6808;49.444;11.034;2023-12-07T03:46:05;1.60;99.90
13472;DHT22;6808;49.444;11.034;2023-12-07T03:48:31;1.60;99.90
13472;DHT22;6808;49.444;11.034;2023-12-07T03:50:56;1.60;99.90
13472;DHT22;6808;49.444;11.034;2023-12-07T03:53:22;1.60;99.90
13472;DHT22;6808;49.444;11.034;2023-12-07T03:55:48;1.60;99.90
13472;DHT22;6808;49.444;11.034;2023-12-07T03:58:13;1.60;99.90
13472;DHT22;6808;49.444;11.034;2023-12-07T04:00:39;1.60;99.90
13472;DHT22;6808;49.444;11.034;2023-12-07T04:03:05;1.60;99.90
13472;DHT22;6808;49.444;11.034;2023-12-07T04:05:31;1.60;99.90
13472;DHT22;6808;49.444;11.034;2023-12-07T04:07:57;1.60;99.90
13472;DHT22;6808;49.444;11.034;2023-12-07T04:10:23;1.50;99.90
13472;DHT22;6808;49.444;11.034;2023-12-07T04:12:49;1.50;99.90
13472;DHT22;6808;49.444;11.034;2023-12-07T04:15:15;1.50;99.90
13472;DHT22;6808;49.444;11.034;2023-12-07T04:17:40;1.50;99.90
13472;DHT22;6808;49.444;11.034;2023-12-07T04:20:06;1.50;99.90
13472;DHT22;6808;49.444;11.034;2023-12-07T04:22:33;1.50;99.90
13472;DHT22;6808;49.444;11.034;2023-12-07T04:24:58;1.50;99.90
13472;DHT22;6808;49.444;11.034;2023-12-07T04:27:24;1.50;99.90
13472;DHT22;6808;49.444;11.034;2023-12-07T04:29:49;1.50;99.90
13472;DHT22;6808;49.444;11.034;2023-12-07T04:32:15;1.50;99.90
13472;DHT22;6808;49.444;11.034;2023-12-07T04:34:40;1.50;99.90
13472;DHT22;6808;49.444;11.034;2023-12-07T04:37:06;1.50;99.90
13472;DHT22;6808;49.444;11.034;2023-12-07T04:39:32;1.50;99.90
13472;DHT22;6808;49.444;11.034;2023-12-07T04:41:57;1.50;99.90
13472;DHT22;6808;49.444;11.034;2023-12-07T04:44:23;1.40;99.90
13472;DHT22;6808;49.444;11.034;2023-12-07T04:46:51;1.40;99.90
13472;DHT22;6808;49.444;11.034;2023-12-07T04:49:16;1.40;99.90
13472;DHT22;6808;49.444;11.034;2023-12-07T04:51:42;1.40;99.90
13472;DHT22;6808;49.444;11.034;2023-12-07T04:54:12;1.40;99.90
13472;DHT22;6808;49.444;11.034;2023-12-07T04:56:37;1.40;99.90
13472;DHT22;6808;49.444;11.034;2023-12-07T04:59:04;1.40;99.90
13472;DHT22;6808;49.444;11.034;2023-12-07T05:01:30;1.30;99.90
13472;DHT22;6808;49.444;11.034;2023-12-07T05:03:55;1.30;99.90
13472;DHT22;6808;49.444;11.034;2023-12-07T05:06:21;1.30;99.90
13472;DHT22;6808;49.444;11.034;2023-12-07T05:08:46;1.30;99.90
13472;DHT22;6808;49.444;11.034;2023-12-07T05:11:12;1.30;99.90
13472;DHT22;6808;49.444;11.034;2023-12-07T05:13:37;1.30;99.90
13472;DHT22;6808;49.444;11.034;2023-12-07T05:16:03;1.30;99.90
13472;DHT22;6808;49.444;11.034;2023-12-07T05:18:29;1.30;99.90
13472;DHT22;6808;49.444;11.034;2023-12-07T05:20:55;1.20;99.90
13472;DHT22;6808;49.444;11.034;2023-12-07T05:23:20;1.20;99.90
13472;DHT22;6808;49.444;11.034;2023-12-07T05:25:46;1.20;99.90
13472;DHT22;6808;49.444;11.034;2023-12-07T05:28:12;1.10;99.90
13472;DHT22;6808;49.444;11.034;2023-12-07T05:30:38;1.10;99.90
13472;DHT22;6808;49.444;11.034;2023-12-07T05:33:03;1.10;99.90
13472;DHT22;6808;49.444;11.034;2023-12-07T05:35:29;1.00;99.90
13472;DHT22;6808;49.444;11.034;2023-12-07T05:37:55;1.00;99.90
13472;DHT22;6808;49.444;11.034;2023-12-07T05:40:20;1.00;99.90
13472;DHT22;6808;49.444;11.034;2023-12-07T05:42:49;0.90;99.90
13472;DHT22;6808;49.444;11.034;2023-12-07T05:45:21;0.90;99.90
13472;DHT22;6808;49.444;11.034;2023-12-07T05:47:46;0.80;99.90
13472;DHT22;6808;49.444;11.034;2023-12-07T05:50:12;0.80;99.90
13472;DHT22;6808;49.444;11.034;2023-12-07T05:52:37;0.70;99.90
13472;DHT22;6808;49.444;11.034;2023-12-07T05:55:04;0.70;99.90
13472;DHT22;6808;49.444;11.034;2023-12-07T05:57:30;0.60;99.90
13472;DHT22;6808;49.444;11.034;2023-12-07T05:59:56;0.60;99.90
13472;DHT22;6808;49.444;11.034;2023-12-07T06:02:22;0.60;99.90
13472;DHT22;6808;49.444;11.034;2023-12-07T06:04:47;0.60;99.90
13472;DHT22;6808;49.444;11.034;2023-12-07T06:07:13;0.60;99.90
13472;DHT22;6808;49.444;11.034;2023-12-07T06:09:38;0.60;99.90
13472;DHT22;6808;49.444;11.034;2023-12-07T06:12:04;0.50;99.90
13472;DHT22;6808;49.444;11.034;2023-12-07T06:14:30;0.50;99.90
13472;DHT22;6808;49.444;11.034;2023-12-07T06:16:55;0.50;99.90
13472;DHT22;6808;49.444;11.034;2023-12-07T06:19:21;0.50;99.90
13472;DHT22;6808;49.444;11.034;2023-12-07T06:21:46;0.50;99.90
13472;DHT22;6808;49.444;11.034;2023-12-07T06:24:12;0.50;99.90
13472;DHT22;6808;49.444;11.034;2023-12-07T06:26:39;0.40;99.90
13472;DHT22;6808;49.444;11.034;2023-12-07T06:29:05;0.50;99.90
13472;DHT22;6808;49.444;11.034;2023-12-07T06:31:33;0.40;99.90
13472;DHT22;6808;49.444;11.034;2023-12-07T06:33:59;0.40;99.90
13472;DHT22;6808;49.444;11.034;2023-12-07T06:36:26;0.40;99.90
13472;DHT22;6808;49.444;11.034;2023-12-07T06:38:52;0.40;99.90
13472;DHT22;6808;49.444;11.034;2023-12-07T06:41:20;0.40;99.90
13472;DHT22;6808;49.444;11.034;2023-12-07T06:43:45;0.30;99.90
13472;DHT22;6808;49.444;11.034;2023-12-07T06:46:12;0.30;99.90
13472;DHT22;6808;49.444;11.034;2023-12-07T06:48:38;0.30;99.90
13472;DHT22;6808;49.444;11.034;2023-12-07T06:51:04;0.30;99.90
13472;DHT22;6808;49.444;11.034;2023-12-07T06:53:30;0.30;99.90
13472;DHT22;6808;49.444;11.034;2023-12-07T06:55:57;0.30;99.90
13472;DHT22;6808;49.444;11.034;2023-12-07T06:58:22;0.30;99.90
13472;DHT22;6808;49.444;11.034;2023-12-07T07:00:48;0.30;99.90
13472;DHT22;6808;49.444;11.034;2023-12-07T07:03:15;0.30;99.90
13472;DHT22;6808;49.444;11.034;2023-12-07T07:05:41;0.20;99.90
13472;DHT22;6808;49.444;11.034;2023-12-07T07:08:06;0.20;99.90
13472;DHT22;6808;49.444;11.034;2023-12-07T07:10:34;0.20;99.90
13472;DHT22;6808;49.444;11.034;2023-12-07T07:13:03;0.20;99.90
13472;DHT22;6808;49.444;11.034;2023-12-07T07:15:30;0.20;99.90
13472;DHT22;6808;49.444;11.034;2023-12-07T07:17:56;0.20;99.90
13472;DHT22;6808;49.444;11.034;2023-12-07T07:20:21;0.20;99.90
13472;DHT22;6808;49.444;11.034;2023-12-07T07:22:47;0.20;99.90
13472;DHT22;6808;49.444;11.034;2023-12-07T07:25:13;0.20;99.90
13472;DHT22;6808;49.444;11.034;2023-12-07T07:27:41;0.20;99.90
13472;DHT22;6808;49.444;11.034;2023-12-07T07:30:07;0.20;99.90
13472;DHT22;6808;49.444;11.034;2023-12-07T07:32:33;0.20;99.90
13472;DHT22;6808;49.444;11.034;2023-12-07T07:34:59;0.20;99.90
13472;DHT22;6808;49.444;11.034;2023-12-07T07:37:25;0.20;99.90
13472;DHT22;6808;49.444;11.034;2023-12-07T07:39:50;0.30;99.90
13472;DHT22;6808;49.444;11.034;2023-12-07T07:42:16;0.30;99.90
13472;DHT22;6808;49.444;11.034;2023-12-07T07:44:42;0.30;99.90
13472;DHT22;6808;49.444;11.034;2023-12-07T07:47:07;0.40;99.90
13472;DHT22;6808;49.444;11.034;2023-12-07T07:49:33;0.40;99.90
13472;DHT22;6808;49.444;11.034;2023-12-07T07:51:59;0.50;99.90
13472;DHT22;6808;49.444;11.034;2023-12-07T07:54:25;0.50;99.90
13472;DHT22;6808;49.444;11.034;2023-12-07T07:56:51;0.60;99.90
13472;DHT22;6808;49.444;11.034;2023-12-07T07:59:16;0.60;99.90
13472;DHT22;6808;49.444;11.034;2023-12-07T08:01:42;0.70;99.90
13472;DHT22;6808;49.444;11.034;2023-12-07T08:04:07;0.80;99.90
13472;DHT22;6808;49.444;11.034;2023-12-07T08:06:33;0.70;99.90
13472;DHT22;6808;49.444;11.034;2023-12-07T08:08:59;0.70;99.90
13472;DHT22;6808;49.444;11.034;2023-12-07T08:11:25;0.70;99.90
13472;DHT22;6808;49.444;11.034;2023-12-07T08:13:50;0.70;99.90
13472;DHT22;6808;49.444;11.034;2023-12-07T08:16:17;0.70;99.90
13472;DHT22;6808;49.444;11.034;2023-12-07T08:18:42;0.70;99.90
13472;DHT22;6808;49.444;11.034;2023-12-07T08:21:08;0.80;99.90
13472;DHT22;6808;49.444;11.034;2023-12-07T08:23:34;0.80;99.90
13472;DHT22;6808;49.444;11.034;2023-12-07T08:26:01;0.80;99.90
13472;DHT22;6808;49.444;11.034;2023-12-07T08:28:27;0.80;99.90
13472;DHT22;6808;49.444;11.034;2023-12-07T08:30:53;0.80;99.90
13472;DHT22;6808;49.444;11.034;2023-12-07T08:33:18;0.80;99.90
13472;DHT22;6808;49.444;11.034;2023-12-07T08:35:44;0.80;99.90
13472;DHT22;6808;49.444;11.034;2023-12-07T08:38:09;0.90;99.90
13472;DHT22;6808;49.444;11.034;2023-12-07T08:40:35;0.80;99.90
13472;DHT22;6808;49.444;11.034;2023-12-07T08:43:00;0.80;99.90
13472;DHT22;6808;49.444;11.034;2023-12-07T08:45:26;0.80;99.90
13472;DHT22;6808;49.444;11.034;2023-12-07T08:47:51;0.90;99.90
13472;DHT22;6808;49.444;11.034;2023-12-07T08:50:17;0.90;99.90
13472;DHT22;6808;49.444;11.034;2023-12-07T08:52:43;1.00;99.90
13472;DHT22;6808;49.444;11.034;2023-12-07T08:55:08;1.00;99.90
13472;DHT22;6808;49.444;11.034;2023-12-07T08:57:34;1.00;99.90
13472;DHT22;6808;49.444;11.034;2023-12-07T08:59:59;1.10;99.90
13472;DHT22;6808;49.444;11.034;2023-12-07T09:02:25;1.10;99.90
13472;DHT22;6808;49.444;11.034;2023-12-07T09:04:50;1.10;99.90
13472;DHT22;6808;49.444;11.034;2023-12-07T09:07:17;1.10;99.90
13472;DHT22;6808;49.444;11.034;2023-12-07T09:09:43;1.10;99.90
13472;DHT22;6808;49.444;11.034;2023-12-07T09:12:14;1.10;99.90
13472;DHT22;6808;49.444;11.034;2023-12-07T09:14:40;1.10;99.90
13472;DHT22;6808;49.444;11.034;2023-12-07T09:17:05;1.10;99.90
13472;DHT22;6808;49.444;11.034;2023-12-07T09:19:31;1.20;99.90
13472;DHT22;6808;49.444;11.034;2023-12-07T09:21:57;1.20;99.90
13472;DHT22;6808;49.444;11.034;2023-12-07T09:24:24;1.30;99.90
13472;DHT22;6808;49.444;11.034;2023-12-07T09:26:49;1.30;99.90
13472;DHT22;6808;49.444;11.034;2023-12-07T09:29:15;1.30;99.90
13472;DHT22;6808;49.444;11.034;2023-12-07T09:31:40;1.40;99.90
13472;DHT22;6808;49.444;11.034;2023-12-07T09:34:06;1.40;99.90
13472;DHT22;6808;49.444;11.034;2023-12-07T09:36:33;1.30;99.90
13472;DHT22;6808;49.444;11.034;2023-12-07T09:38:59;1.40;99.90
13472;DHT22;6808;49.444;11.034;2023-12-07T09:41:27;1.40;99.90
13472;DHT22;6808;49.444;11.034;2023-12-07T09:43:53;1.40;99.90
13472;DHT22;6808;49.444;11.034;2023-12-07T09:46:19;1.40;99.90
13472;DHT22;6808;49.444;11.034;2023-12-07T09:48:48;1.40;99.90
13472;DHT22;6808;49.444;11.034;2023-12-07T09:51:15;1.50;99.90
13472;DHT22;6808;49.444;11.034;2023-12-07T09:53:42;1.50;99.90
13472;DHT22;6808;49.444;11.034;2023-12-07T09:56:10;1.50;99.90
13472;DHT22;6808;49.444;11.034;2023-12-07T09:58:36;1.50;99.90
13472;DHT22;6808;49.444;11.034;2023-12-07T10:01:01;1.60;99.90
13472;DHT22;6808;49.444;11.034;2023-12-07T10:03:27;1.60;99.90
13472;DHT22;6808;49.444;11.034;2023-12-07T10:05:54;1.60;99.90
13472;DHT22;6808;49.444;11.034;2023-12-07T10:08:28;1.60;99.90
13472;DHT22;6808;49.444;11.034;2023-12-07T10:11:10;1.70;99.90
13472;DHT22;6808;49.444;11.034;2023-12-07T10:13:38;1.70;99.90
13472;DHT22;6808;49.444;11.034;2023-12-07T10:16:14;1.80;99.90
13472;DHT22;6808;49.444;11.034;2023-12-07T10:18:41;1.80;99.90
13472;DHT22;6808;49.444;11.034;2023-12-07T10:21:08;1.80;99.90
13472;DHT22;6808;49.444;11.034;2023-12-07T10:23:36;1.80;99.90
13472;DHT22;6808;49.444;11.034;2023-12-07T10:26:02;1.90;99.90
13472;DHT22;6808;49.444;11.034;2023-12-07T10:28:27;1.90;99.90
13472;DHT22;6808;49.444;11.034;2023-12-07T10:30:53;2.00;99.90
13472;DHT22;6808;49.444;11.034;2023-12-07T10:33:21;2.00;99.90
13472;DHT22;6808;49.444;11.034;2023-12-07T10:35:47;2.00;99.90
13472;DHT22;6808;49.444;11.034;2023-12-07T10:38:16;2.00;99.90
13472;DHT22;6808;49.444;11.034;2023-12-07T10:40:43;2.10;99.90
13472;DHT22;6808;49.444;11.034;2023-12-07T10:43:09;2.10;99.90
13472;DHT22;6808;49.444;11.034;2023-12-07T10:45:35;2.10;99.90
13472;DHT22;6808;49.444;11.034;2023-12-07T10:48:05;2.10;99.90
13472;DHT22;6808;49.444;11.034;2023-12-07T10:50:34;2.10;99.90
13472;DHT22;6808;49.444;11.034;2023-12-07T10:53:11;2.10;99.90
13472;DHT22;6808;49.444;11.034;2023-12-07T10:55:47;2.10;99.90
13472;DHT22;6808;49.444;11.034;2023-12-07T10:58:14;2.20;99.90
13472;DHT22;6808;49.444;11.034;2023-12-07T11:00:45;2.10;99.90
13472;DHT22;6808;49.444;11.034;2023-12-07T11:03:16;2.20;99.90
13472;DHT22;6808;49.444;11.034;2023-12-07T11:05:47;2.20;99.90
13472;DHT22;6808;49.444;11.034;2023-12-07T11:08:28;2.20;99.90
13472;DHT22;6808;49.444;11.034;2023-12-07T11:11:19;2.20;99.90
13472;DHT22;6808;49.444;11.034;2023-12-07T11:14:06;2.30;99.90
13472;DHT22;6808;49.444;11.034;2023-12-07T11:16:36;2.30;99.90
13472;DHT22;6808;49.444;11.034;2023-12-07T11:19:03;2.30;99.90
13472;DHT22;6808;49.444;11.034;2023-12-07T11:21:30;2.40;99.90
13472;DHT22;6808;49.444;11.034;2023-12-07T11:23:59;2.40;99.90
13472;DHT22;6808;49.444;11.034;2023-12-07T11:26:25;2.40;99.90
13472;DHT22;6808;49.444;11.034;2023-12-07T11:28:52;2.40;99.90
13472;DHT22;6808;49.444;11.034;2023-12-07T11:31:19;2.50;99.90
13472;DHT22;6808;49.444;11.034;2023-12-07T11:33:45;2.50;99.90
13472;DHT22;6808;49.444;11.034;2023-12-07T11:36:13;2.50;99.90
13472;DHT22;6808;49.444;11.034;2023-12-07T11:41:44;2.50;99.90
13472;DHT22;6808;49.444;11.034;2023-12-07T11:44:10;2.60;99.90
13472;DHT22;6808;49.444;11.034;2023-12-07T11:46:37;2.60;99.90
13472;DHT22;6808;49.444;11.034;2023-12-07T11:49:03;2.60;99.90
13472;DHT22;6808;49.444;11.034;2023-12-07T11:51:29;2.60;99.90
13472;DHT22;6808;49.444;11.034;2023-12-07T11:53:55;2.60;99.90
13472;DHT22;6808;49.444;11.034;2023-12-07T11:56:21;2.60;99.90
13472;DHT22;6808;49.444;11.034;2023-12-07T11:58:47;2.60;99.90
13472;DHT22;6808;49.444;11.034;2023-12-07T12:01:13;2.70;99.90
13472;DHT22;6808;49.444;11.034;2023-12-07T12:03:38;2.70;99.90
13472;DHT22;6808;49.444;11.034;2023-12-07T12:06:05;2.70;99.90
13472;DHT22;6808;49.444;11.034;2023-12-07T12:08:31;2.70;99.90
13472;DHT22;6808;49.444;11.034;2023-12-07T12:10:57;2.70;99.90
13472;DHT22;6808;49.444;11.034;2023-12-07T12:13:30;2.70;99.90
13472;DHT22;6808;49.444;11.034;2023-12-07T12:15:57;2.70;99.90
13472;DHT22;6808;49.444;11.034;2023-12-07T12:18:23;2.70;99.90
13472;DHT22;6808;49.444;11.034;2023-12-07T12:20:50;2.70;99.90
13472;DHT22;6808;49.444;11.034;2023-12-07T12:23:16;2.70;99.90
13472;DHT22;6808;49.444;11.034;2023-12-07T12:25:42;2.80;99.90
13472;DHT22;6808;49.444;11.034;2023-12-07T12:28:08;2.80;99.90
13472;DHT22;6808;49.444;11.034;2023-12-07T12:30:35;2.90;99.90
13472;DHT22;6808;49.444;11.034;2023-12-07T12:33:01;3.50;99.90
13472;DHT22;6808;49.444;11.034;2023-12-07T12:35:28;3.20;99.90
13472;DHT22;6808;49.444;11.034;2023-12-07T12:37:54;3.60;99.90
13472;DHT22;6808;49.444;11.034;2023-12-07T12:40:23;3.10;99.90
13472;DHT22;6808;49.444;11.034;2023-12-07T12:42:51;3.10;99.90
13472;DHT22;6808;49.444;11.034;2023-12-07T12:45:18;3.10;99.90
13472;DHT22;6808;49.444;11.034;2023-12-07T12:47:46;3.40;99.90
13472;DHT22;6808;49.444;11.034;2023-12-07T12:50:32;3.30;99.90
13472;DHT22;6808;49.444;11.034;2023-12-07T12:52:58;3.30;99.90
13472;DHT22;6808;49.444;11.034;2023-12-07T12:55:26;3.30;99.90
13472;DHT22;6808;49.444;11.034;2023-12-07T12:57:52;3.40;99.90
13472;DHT22;6808;49.444;11.034;2023-12-07T13:00:18;3.40;99.90
13472;DHT22;6808;49.444;11.034;2023-12-07T13:02:44;3.40;99.90
13472;DHT22;6808;49.444;11.034;2023-12-07T13:05:10;3.50;99.90
13472;DHT22;6808;49.444;11.034;2023-12-07T13:07:36;3.50;99.90
13472;DHT22;6808;49.444;11.034;2023-12-07T13:10:01;3.50;99.90
13472;DHT22;6808;49.444;11.034;2023-12-07T13:12:27;3.50;99.90
13472;DHT22;6808;49.444;11.034;2023-12-07T13:14:54;3.50;99.90
13472;DHT22;6808;49.444;11.034;2023-12-07T13:17:19;3.30;99.90
13472;DHT22;6808;49.444;11.034;2023-12-07T13:19:45;3.30;99.90
13472;DHT22;6808;49.444;11.034;2023-12-07T13:22:10;3.30;99.90
13472;DHT22;6808;49.444;11.034;2023-12-07T13:24:36;3.20;99.90
13472;DHT22;6808;49.444;11.034;2023-12-07T13:27:02;3.20;99.90
13472;DHT22;6808;49.444;11.034;2023-12-07T13:29:27;3.20;99.90
13472;DHT22;6808;49.444;11.034;2023-12-07T13:31:53;3.20;99.90
13472;DHT22;6808;49.444;11.034;2023-12-07T13:34:19;3.20;99.90
13472;DHT22;6808;49.444;11.034;2023-12-07T13:36:46;3.20;99.90
13472;DHT22;6808;49.444;11.034;2023-12-07T13:39:12;3.20;99.90
13472;DHT22;6808;49.444;11.034;2023-12-07T13:41:38;3.20;99.90
13472;DHT22;6808;49.444;11.034;2023-12-07T13:44:04;3.20;99.90
13472;DHT22;6808;49.444;11.034;2023-12-07T13:46:30;3.10;99.90
13472;DHT22;6808;49.444;11.034;2023-12-07T13:48:57;3.10;99.90
13472;DHT22;6808;49.444;11.034;2023-12-07T13:51:22;3.10;99.90
13472;DHT22;6808;49.444;11.034;2023-12-07T13:53:48;3.10;99.90
13472;DHT22;6808;49.444;11.034;2023-12-07T13:56:14;3.10;99.90
13472;DHT22;6808;49.444;11.034;2023-12-07T13:58:40;3.00;99.90
13472;DHT22;6808;49.444;11.034;2023-12-07T14:01:05;3.00;99.90
13472;DHT22;6808;49.444;11.034;2023-12-07T14:03:32;3.00;99.90
13472;DHT22;6808;49.444;11.034;2023-12-07T14:05:57;3.00;99.90
13472;DHT22;6808;49.444;11.034;2023-12-07T14:08:23;3.00;99.90
13472;DHT22;6808;49.444;11.034;2023-12-07T14:10:52;2.90;99.90
13472;DHT22;6808;49.444;11.034;2023-12-07T14:13:18;2.90;99.90
13472;DHT22;6808;49.444;11.034;2023-12-07T14:15:44;2.90;99.90
13472;DHT22;6808;49.444;11.034;2023-12-07T14:18:10;2.90;99.90
13472;DHT22;6808;49.444;11.034;2023-12-07T14:20:36;2.90;99.90
13472;DHT22;6808;49.444;11.034;2023-12-07T14:23:01;3.30;99.90
13472;DHT22;6808;49.444;11.034;2023-12-07T14:25:30;2.80;99.90
13472;DHT22;6808;49.444;11.034;2023-12-07T14:27:55;2.80;99.90
13472;DHT22;6808;49.444;11.034;2023-12-07T14:30:21;2.70;99.90
13472;DHT22;6808;49.444;11.034;2023-12-07T14:32:47;2.60;99.90
13472;DHT22;6808;49.444;11.034;2023-12-07T14:35:18;2.60;99.90
13472;DHT22;6808;49.444;11.034;2023-12-07T14:37:44;2.60;99.90
13472;DHT22;6808;49.444;11.034;2023-12-07T14:40:10;2.60;99.90
13472;DHT22;6808;49.444;11.034;2023-12-07T14:42:36;2.50;99.90
13472;DHT22;6808;49.444;11.034;2023-12-07T14:45:02;2.50;99.90
13472;DHT22;6808;49.444;11.034;2023-12-07T14:47:28;2.60;99.90
13472;DHT22;6808;49.444;11.034;2023-12-07T14:49:53;2.50;99.90
13472;DHT22;6808;49.444;11.034;2023-12-07T14:52:19;2.40;99.90
13472;DHT22;6808;49.444;11.034;2023-12-07T14:54:45;2.50;99.90
13472;DHT22;6808;49.444;11.034;2023-12-07T14:57:13;2.30;99.90
13472;DHT22;6808;49.444;11.034;2023-12-07T14:59:38;2.30;99.90
13472;DHT22;6808;49.444;11.034;2023-12-07T15:02:04;2.30;99.90
13472;DHT22;6808;49.444;11.034;2023-12-07T15:04:29;2.20;99.90
13472;DHT22;6808;49.444;11.034;2023-12-07T15:06:56;2.10;99.90
13472;DHT22;6808;49.444;11.034;2023-12-07T15:09:22;2.00;99.90
13472;DHT22;6808;49.444;11.034;2023-12-07T15:11:47;2.00;99.90
13472;DHT22;6808;49.444;11.034;2023-12-07T15:14:14;1.90;99.90
13472;DHT22;6808;49.444;11.034;2023-12-07T15:16:39;1.80;99.90
13472;DHT22;6808;49.444;11.034;2023-12-07T15:19:05;1.80;99.90
13472;DHT22;6808;49.444;11.034;2023-12-07T15:21:31;1.70;99.90
13472;DHT22;6808;49.444;11.034;2023-12-07T15:23:58;1.70;99.90
13472;DHT22;6808;49.444;11.034;2023-12-07T15:26:24;1.60;99.90
13472;DHT22;6808;49.444;11.034;2023-12-07T15:28:50;1.50;99.90
13472;DHT22;6808;49.444;11.034;2023-12-07T15:31:15;1.50;99.90
13472;DHT22;6808;49.444;11.034;2023-12-07T15:33:41;1.50;99.90
13472;DHT22;6808;49.444;11.034;2023-12-07T15:36:08;1.50;99.90
13472;DHT22;6808;49.444;11.034;2023-12-07T15:38:33;1.40;99.90
13472;DHT22;6808;49.444;11.034;2023-12-07T15:40:59;1.30;99.90
13472;DHT22;6808;49.444;11.034;2023-12-07T15:43:28;1.30;99.90